createdAt,value
2022-07-25T00:00:09.555Z,20.50
2022-07-25T00:02:36.425Z,20.50
2022-07-25T00:05:04.714Z,20.50
2022-07-25T00:07:31.435Z,20.40
2022-07-25T00:09:58.197Z,20.40
2022-07-25T00:12:25.012Z,20.40
2022-07-25T00:14:51.721Z,20.40
2022-07-25T00:17:18.451Z,20.40
2022-07-25T00:19:45.150Z,20.30
2022-07-25T00:22:11.823Z,20.20
2022-07-25T00:24:38.628Z,20.20
2022-07-25T00:27:05.379Z,20.20
2022-07-25T00:29:32.044Z,20.20
2022-07-25T00:31:58.760Z,20.10
2022-07-25T00:34:25.428Z,20.10
2022-07-25T00:36:52.123Z,20.10
2022-07-25T00:39:18.839Z,20.10
2022-07-25T00:41:45.530Z,20.10
2022-07-25T00:44:31.997Z,20.10
2022-07-25T00:46:59.340Z,20.10
2022-07-25T00:49:26.616Z,20.10
2022-07-25T00:51:54.433Z,20.00
2022-07-25T00:54:22.011Z,20.00
2022-07-25T00:56:49.424Z,20.00
2022-07-25T00:59:17.150Z,19.90
2022-07-25T01:01:47.798Z,19.90
2022-07-25T01:04:15.720Z,19.90
2022-07-25T01:06:42.780Z,19.90
2022-07-25T01:09:09.790Z,19.90
2022-07-25T01:11:37.003Z,19.90
2022-07-25T01:14:04.804Z,19.80
2022-07-25T01:16:31.827Z,19.80
2022-07-25T01:18:58.670Z,19.80
2022-07-25T01:21:26.286Z,19.80
2022-07-25T01:23:53.161Z,19.80
2022-07-25T01:26:19.968Z,19.80
2022-07-25T01:28:46.668Z,19.80
2022-07-25T01:31:13.470Z,19.80
2022-07-25T01:33:40.170Z,19.80
2022-07-25T01:36:07.060Z,19.80
2022-07-25T01:38:33.898Z,19.70
2022-07-25T01:41:00.557Z,19.80
2022-07-25T01:43:27.270Z,19.80
2022-07-25T01:45:54.053Z,19.80
2022-07-25T01:48:20.841Z,19.80
2022-07-25T01:50:47.518Z,19.80
2022-07-25T01:53:15.678Z,19.70
2022-07-25T01:55:44.401Z,19.70
2022-07-25T01:58:11.386Z,19.70
2022-07-25T02:00:38.529Z,19.70
2022-07-25T02:03:23.863Z,19.60
2022-07-25T02:05:50.610Z,19.60
2022-07-25T02:08:17.289Z,19.50
2022-07-25T02:10:44.293Z,19.50
2022-07-25T02:13:10.951Z,19.40
2022-07-25T02:15:38.402Z,19.40
2022-07-25T02:18:05.652Z,19.40
2022-07-25T02:20:32.363Z,19.40
2022-07-25T02:22:59.477Z,19.40
2022-07-25T02:25:26.222Z,19.40
2022-07-25T02:27:52.859Z,19.30
2022-07-25T02:30:19.526Z,19.30
2022-07-25T02:32:46.181Z,19.30
2022-07-25T02:35:13.502Z,19.30
2022-07-25T02:37:40.901Z,19.30
2022-07-25T02:40:08.588Z,19.30
2022-07-25T02:42:35.371Z,19.30
2022-07-25T02:45:02.372Z,19.40
2022-07-25T02:47:29.550Z,19.40
2022-07-25T02:49:56.272Z,19.40
2022-07-25T02:52:22.950Z,19.40
2022-07-25T02:54:50.722Z,19.40
2022-07-25T02:57:17.505Z,19.40
2022-07-25T02:59:44.182Z,19.30
2022-07-25T03:02:10.872Z,19.30
2022-07-25T03:04:37.699Z,19.30
2022-07-25T03:07:04.449Z,19.30
2022-07-25T03:09:31.206Z,19.30
2022-07-25T03:11:57.909Z,19.20
2022-07-25T03:14:24.631Z,19.30
2022-07-25T03:16:51.365Z,19.20
2022-07-25T03:19:18.414Z,19.20
2022-07-25T03:21:46.128Z,19.20
2022-07-25T03:24:12.830Z,19.20
2022-07-25T03:26:39.561Z,19.20
2022-07-25T03:29:06.362Z,19.10
2022-07-25T03:31:33.112Z,19.10
2022-07-25T03:33:59.884Z,19.00
2022-07-25T03:36:26.689Z,19.00
2022-07-25T03:38:53.375Z,19.00
2022-07-25T03:41:20.084Z,19.00
2022-07-25T03:43:46.766Z,19.00
2022-07-25T03:46:13.618Z,19.00
2022-07-25T03:48:40.502Z,19.00
2022-07-25T03:51:07.520Z,19.00
2022-07-25T03:53:54.654Z,19.00
2022-07-25T03:56:21.418Z,19.00
2022-07-25T03:58:48.163Z,19.00
2022-07-25T04:01:14.996Z,19.00
2022-07-25T04:03:41.800Z,19.00
2022-07-25T04:06:11.047Z,19.00
2022-07-25T04:08:37.789Z,19.00
2022-07-25T04:11:04.676Z,19.00
2022-07-25T04:13:31.602Z,19.00
2022-07-25T04:15:58.336Z,19.00
2022-07-25T04:18:28.511Z,19.00
2022-07-25T04:20:55.647Z,19.10
2022-07-25T04:23:22.379Z,19.20
2022-07-25T04:25:49.137Z,19.30
2022-07-25T04:28:15.865Z,19.20
2022-07-25T04:30:45.361Z,19.20
2022-07-25T04:33:13.521Z,19.30
2022-07-25T04:35:40.339Z,19.30
2022-07-25T04:38:11.899Z,19.40
2022-07-25T04:40:39.899Z,19.40
2022-07-25T04:43:08.444Z,19.50
2022-07-25T04:45:35.422Z,19.50
2022-07-25T04:48:02.641Z,19.50
2022-07-25T04:50:29.988Z,19.70
2022-07-25T04:52:56.732Z,19.60
2022-07-25T04:55:23.553Z,19.90
2022-07-25T04:57:50.381Z,20.00
2022-07-25T05:00:17.417Z,20.10
2022-07-25T05:02:44.654Z,20.20
2022-07-25T05:05:20.878Z,20.20
2022-07-25T05:07:48.734Z,20.20
2022-07-25T05:10:15.523Z,20.30
2022-07-25T05:12:42.332Z,20.50
2022-07-25T05:15:09.750Z,20.70
2022-07-25T05:17:36.494Z,21.20
2022-07-25T05:20:03.689Z,21.80
2022-07-25T05:22:30.836Z,22.40
2022-07-25T05:24:57.627Z,23.00
2022-07-25T05:27:24.344Z,23.70
2022-07-25T05:29:51.045Z,23.80
2022-07-25T05:32:17.976Z,23.60
2022-07-25T05:34:44.906Z,23.80
2022-07-25T05:37:11.667Z,23.80
2022-07-25T05:39:40.250Z,24.00
2022-07-25T05:42:07.565Z,24.90
2022-07-25T05:44:34.246Z,25.20
2022-07-25T05:47:01.056Z,25.00
2022-07-25T05:49:28.013Z,25.10
2022-07-25T05:51:54.761Z,25.30
2022-07-25T05:54:21.458Z,25.30
2022-07-25T05:56:48.176Z,25.90
2022-07-25T05:59:14.892Z,26.30
2022-07-25T06:01:41.666Z,26.00
2022-07-25T06:04:08.781Z,25.90
2022-07-25T06:06:35.854Z,25.90
2022-07-25T06:09:02.580Z,26.40
2022-07-25T06:11:34.667Z,26.40
2022-07-25T06:14:01.415Z,26.70
2022-07-25T06:16:28.693Z,26.40
2022-07-25T06:18:55.500Z,26.80
2022-07-25T06:21:22.229Z,27.80
2022-07-25T06:23:48.880Z,29.10
2022-07-25T06:26:15.595Z,28.30
2022-07-25T06:28:42.383Z,27.50
2022-07-25T06:31:09.251Z,27.20
2022-07-25T06:33:36.105Z,27.80
2022-07-25T06:36:04.086Z,28.40
2022-07-25T06:38:30.847Z,28.60
2022-07-25T06:40:57.569Z,28.70
2022-07-25T06:43:24.312Z,28.50
2022-07-25T06:45:51.263Z,28.30
2022-07-25T06:48:18.773Z,27.90
2022-07-25T06:50:45.555Z,27.50
2022-07-25T06:53:12.537Z,27.30
2022-07-25T06:55:39.469Z,27.30
2022-07-25T06:58:06.157Z,27.30
2022-07-25T07:00:32.942Z,27.10
2022-07-25T07:03:02.281Z,27.20
2022-07-25T07:05:33.993Z,27.20
2022-07-25T07:08:01.483Z,26.40
2022-07-25T07:10:28.600Z,26.70
2022-07-25T07:13:11.045Z,27.10
2022-07-25T07:15:43.619Z,27.60
2022-07-25T07:18:10.295Z,27.20
2022-07-25T07:20:37.112Z,27.30
2022-07-25T07:23:03.842Z,27.70
2022-07-25T07:25:30.945Z,28.00
2022-07-25T07:27:57.773Z,28.00
2022-07-25T07:30:37.649Z,28.10
2022-07-25T07:33:11.281Z,28.30
2022-07-25T07:35:38.045Z,28.40
2022-07-25T07:38:04.765Z,28.20
2022-07-25T07:40:32.315Z,28.50
2022-07-25T07:43:02.265Z,28.70
2022-07-25T07:45:29.424Z,29.20
2022-07-25T07:47:56.703Z,29.40
2022-07-25T07:50:25.590Z,29.00
2022-07-25T07:52:53.608Z,28.80
2022-07-25T07:55:39.619Z,29.30
2022-07-25T07:58:07.254Z,30.20
2022-07-25T08:00:39.288Z,30.50
2022-07-25T08:03:09.931Z,30.90
2022-07-25T08:05:38.751Z,31.10
2022-07-25T08:08:07.480Z,30.40
2022-07-25T08:10:37.412Z,31.30
2022-07-25T08:13:23.092Z,31.70
2022-07-25T08:15:58.036Z,31.50
2022-07-25T08:18:26.376Z,31.40
2022-07-25T08:20:54.516Z,30.70
2022-07-25T08:23:22.453Z,30.80
2022-07-25T08:25:49.489Z,31.00
2022-07-25T08:28:16.341Z,31.50
2022-07-25T08:30:43.198Z,31.90
2022-07-25T08:33:13.282Z,32.70
2022-07-25T08:35:41.722Z,33.00
2022-07-25T08:38:11.365Z,32.60
2022-07-25T08:40:38.296Z,32.80
2022-07-25T08:43:05.195Z,33.50
2022-07-25T08:45:33.538Z,32.90
2022-07-25T08:48:00.323Z,32.30
2022-07-25T08:50:29.330Z,32.00
2022-07-25T08:53:29.907Z,32.20
2022-07-25T08:55:46.731Z,32.10
2022-07-25T08:58:16.048Z,32.00
2022-07-25T09:00:43.876Z,32.00
2022-07-25T09:03:11.239Z,31.60
2022-07-25T09:05:38.637Z,31.50
2022-07-25T09:08:17.687Z,31.60
2022-07-25T09:10:52.401Z,31.50
2022-07-25T09:13:21.258Z,31.30
2022-07-25T09:15:51.824Z,31.30
2022-07-25T09:18:22.822Z,31.30
2022-07-25T09:21:01.517Z,31.40
2022-07-25T09:23:28.329Z,31.70
2022-07-25T09:26:10.042Z,31.90
2022-07-25T09:28:56.048Z,32.20
2022-07-25T09:31:32.637Z,32.60
2022-07-25T09:34:01.546Z,32.80
2022-07-25T09:36:28.273Z,32.40
2022-07-25T09:39:02.603Z,32.00
2022-07-25T09:41:41.685Z,31.50
2022-07-25T09:44:29.704Z,31.20
2022-07-25T09:46:58.966Z,31.20
2022-07-25T09:49:26.747Z,31.30
2022-07-25T09:51:54.573Z,31.20
2022-07-25T09:54:21.693Z,30.90
2022-07-25T09:56:48.416Z,30.70
2022-07-25T09:59:15.119Z,30.70
2022-07-25T10:01:51.340Z,30.80
2022-07-25T10:04:25.453Z,30.90
2022-07-25T10:07:07.963Z,31.00
2022-07-25T10:09:40.926Z,31.20
2022-07-25T10:12:09.767Z,31.20
2022-07-25T10:14:37.570Z,31.10
2022-07-25T10:17:05.288Z,31.00
2022-07-25T10:19:49.363Z,31.10
2022-07-25T10:22:25.899Z,31.00
2022-07-25T10:25:13.321Z,30.80
2022-07-25T10:27:48.529Z,30.70
2022-07-25T10:30:26.672Z,30.40
2022-07-25T10:33:10.551Z,30.20
2022-07-25T10:35:37.713Z,30.10
2022-07-25T10:38:05.780Z,30.00
2022-07-25T10:40:33.499Z,29.90
2022-07-25T10:43:09.757Z,30.00
2022-07-25T10:45:57.918Z,30.00
2022-07-25T10:48:28.734Z,30.30
2022-07-25T10:51:04.589Z,30.20
2022-07-25T10:53:43.804Z,30.40
2022-07-25T10:56:17.637Z,30.70
2022-07-25T10:58:57.281Z,30.70
2022-07-25T11:01:32.376Z,30.50
2022-07-25T11:04:01.897Z,30.40
2022-07-25T11:06:36.997Z,30.30
2022-07-25T11:09:17.979Z,30.40
2022-07-25T11:11:48.289Z,31.10
2022-07-25T11:14:20.398Z,31.50
2022-07-25T11:16:50.520Z,32.20
2022-07-25T11:19:17.606Z,32.20
2022-07-25T11:21:49.315Z,32.50
2022-07-25T11:24:16.211Z,32.10
2022-07-25T11:26:51.404Z,31.80
2022-07-25T11:29:19.570Z,31.30
2022-07-25T11:32:02.974Z,31.10
2022-07-25T11:34:36.238Z,31.20
2022-07-25T11:37:06.713Z,31.30
2022-07-25T11:39:36.486Z,31.10
2022-07-25T11:42:05.226Z,31.00
2022-07-25T11:44:47.636Z,31.10
2022-07-25T11:47:33.232Z,30.90
2022-07-25T11:50:02.495Z,30.80
2022-07-25T11:52:37.064Z,30.90
2022-07-25T11:55:10.444Z,30.90
2022-07-25T11:57:44.278Z,30.90
2022-07-25T12:00:19.950Z,30.90
2022-07-25T12:02:48.348Z,30.70
2022-07-25T12:05:17.703Z,30.40
2022-07-25T12:07:45.776Z,30.30
2022-07-25T12:10:18.356Z,30.00
2022-07-25T12:12:50.895Z,29.90
2022-07-25T12:15:20.853Z,29.80
2022-07-25T12:17:48.573Z,29.80
2022-07-25T12:20:38.152Z,30.00
2022-07-25T12:23:07.197Z,29.80
2022-07-25T12:25:35.693Z,29.60
2022-07-25T12:28:02.370Z,29.60
2022-07-25T12:30:30.379Z,29.90
2022-07-25T12:32:58.329Z,30.30
2022-07-25T12:35:25.658Z,30.60
2022-07-25T12:37:53.352Z,30.70
2022-07-25T12:40:20.655Z,31.00
2022-07-25T12:42:48.677Z,32.00
2022-07-25T12:45:17.175Z,32.80
2022-07-25T12:47:45.593Z,33.80
2022-07-25T12:50:13.593Z,34.30
2022-07-25T12:52:41.632Z,34.00
2022-07-25T12:55:10.530Z,34.30
2022-07-25T12:57:37.576Z,34.20
2022-07-25T13:00:07.310Z,33.80
2022-07-25T13:02:34.465Z,33.80
2022-07-25T13:05:01.305Z,33.90
2022-07-25T13:07:28.147Z,33.60
2022-07-25T13:09:54.873Z,33.80
2022-07-25T13:12:23.540Z,34.40
2022-07-25T13:14:51.103Z,33.80
2022-07-25T13:17:17.988Z,33.70
2022-07-25T13:19:44.757Z,33.50
2022-07-25T13:22:11.561Z,33.50
2022-07-25T13:24:39.254Z,33.50
2022-07-25T13:27:06.757Z,33.10
2022-07-25T13:29:34.110Z,32.80
2022-07-25T13:32:02.109Z,32.60
2022-07-25T13:34:28.923Z,32.80
2022-07-25T13:36:55.607Z,33.00
2022-07-25T13:39:22.530Z,32.80
2022-07-25T13:41:49.920Z,32.80
2022-07-25T13:44:16.645Z,32.90
2022-07-25T13:46:46.242Z,32.80
2022-07-25T13:49:13.364Z,33.00
2022-07-25T13:51:40.087Z,32.50
2022-07-25T13:54:07.063Z,32.20
2022-07-25T13:56:33.865Z,31.90
2022-07-25T13:59:01.948Z,32.20
2022-07-25T14:01:28.781Z,32.40
2022-07-25T14:03:55.787Z,32.00
2022-07-25T14:06:22.611Z,31.60
2022-07-25T14:08:49.337Z,31.50
2022-07-25T14:11:16.146Z,31.40
2022-07-25T14:13:44.287Z,31.30
2022-07-25T14:16:14.415Z,31.30
2022-07-25T14:18:41.110Z,31.10
2022-07-25T14:21:07.811Z,30.80
2022-07-25T14:23:34.486Z,30.70
2022-07-25T14:26:01.221Z,30.80
2022-07-25T14:28:27.927Z,31.10
2022-07-25T14:30:54.710Z,31.20
2022-07-25T14:33:21.394Z,30.90
2022-07-25T14:35:48.132Z,30.60
2022-07-25T14:38:15.347Z,30.50
2022-07-25T14:40:42.689Z,30.40
2022-07-25T14:43:09.387Z,30.10
2022-07-25T14:45:37.038Z,29.90
2022-07-25T14:48:06.280Z,29.60
2022-07-25T14:50:33.021Z,29.40
2022-07-25T14:52:59.732Z,29.50
2022-07-25T14:55:26.913Z,29.60
2022-07-25T14:57:53.766Z,29.70
2022-07-25T15:00:22.073Z,29.60
2022-07-25T15:02:51.685Z,29.50
2022-07-25T15:05:18.464Z,29.30
2022-07-25T15:07:45.285Z,29.40
2022-07-25T15:10:12.288Z,29.50
2022-07-25T15:12:38.970Z,29.30
2022-07-25T15:15:06.538Z,29.20
2022-07-25T15:17:33.828Z,29.30
2022-07-25T15:20:06.625Z,29.20
2022-07-25T15:22:33.344Z,29.00
2022-07-25T15:25:39.187Z,28.80
2022-07-25T15:27:46.765Z,28.70
2022-07-25T15:30:13.649Z,28.60
2022-07-25T15:32:40.663Z,28.70
2022-07-25T15:35:09.366Z,28.90
2022-07-25T15:37:36.146Z,29.10
2022-07-25T15:40:03.797Z,29.00
2022-07-25T15:42:32.053Z,28.60
2022-07-25T15:45:30.952Z,28.50
2022-07-25T15:47:50.697Z,28.40
2022-07-25T15:50:18.750Z,28.20
2022-07-25T15:52:45.862Z,28.10
2022-07-25T15:55:13.051Z,28.00
2022-07-25T15:57:39.785Z,28.10
2022-07-25T16:00:08.352Z,28.20
2022-07-25T16:02:35.502Z,28.10
2022-07-25T16:05:03.132Z,28.10
2022-07-25T16:07:29.957Z,28.20
2022-07-25T16:09:57.144Z,28.20
2022-07-25T16:12:28.456Z,28.00
2022-07-25T16:14:55.578Z,28.00
2022-07-25T16:17:22.631Z,28.10
2022-07-25T16:19:49.400Z,28.00
2022-07-25T16:22:16.141Z,28.00
2022-07-25T16:24:42.943Z,27.90
2022-07-25T16:27:09.982Z,27.60
2022-07-25T16:29:37.476Z,27.30
2022-07-25T16:32:05.400Z,27.00
2022-07-25T16:34:32.781Z,26.80
2022-07-25T16:37:00.143Z,26.90
2022-07-25T16:39:26.938Z,27.10
2022-07-25T16:41:53.964Z,27.20
2022-07-25T16:44:20.829Z,27.40
2022-07-25T16:46:47.563Z,27.40
2022-07-25T16:49:15.406Z,27.30
2022-07-25T16:51:43.504Z,26.90
2022-07-25T16:54:10.576Z,26.70
2022-07-25T16:56:37.925Z,26.50
2022-07-25T16:59:06.215Z,26.50
2022-07-25T17:01:34.903Z,26.40
2022-07-25T17:04:01.845Z,26.20
2022-07-25T17:06:29.247Z,26.10
2022-07-25T17:08:56.094Z,26.10
2022-07-25T17:11:22.805Z,25.90
2022-07-25T17:13:49.534Z,25.80
2022-07-25T17:16:16.423Z,25.70
2022-07-25T17:18:43.194Z,25.30
2022-07-25T17:21:10.580Z,25.30
2022-07-25T17:23:37.309Z,25.20
2022-07-25T17:26:05.575Z,25.30
2022-07-25T17:28:34.994Z,25.20
2022-07-25T17:31:04.256Z,25.10
2022-07-25T17:33:33.927Z,25.00
2022-07-25T17:36:04.050Z,25.00
2022-07-25T17:38:36.401Z,24.90
2022-07-25T17:41:05.213Z,25.10
2022-07-25T17:43:33.186Z,25.00
2022-07-25T17:46:02.967Z,25.00
2022-07-25T17:48:30.927Z,25.00
2022-07-25T17:51:03.942Z,24.90
2022-07-25T17:53:35.902Z,24.80
2022-07-25T17:56:09.094Z,24.80
2022-07-25T17:58:42.299Z,24.80
2022-07-25T18:01:12.993Z,24.80
2022-07-25T18:03:40.023Z,24.90
2022-07-25T18:06:06.819Z,24.80
2022-07-25T18:08:35.229Z,24.70
2022-07-25T18:11:03.529Z,24.70
2022-07-25T18:13:30.285Z,24.60
2022-07-25T18:15:57.183Z,24.30
2022-07-25T18:18:23.882Z,24.30
2022-07-25T18:20:50.563Z,24.20
2022-07-25T18:23:17.321Z,24.10
2022-07-25T18:25:47.253Z,24.10
2022-07-25T18:28:14.101Z,24.00
2022-07-25T18:30:40.917Z,23.90
2022-07-25T18:33:07.699Z,23.90
2022-07-25T18:35:34.673Z,23.90
2022-07-25T18:38:01.878Z,23.90
2022-07-25T18:40:28.873Z,23.80
2022-07-25T18:42:55.741Z,23.70
2022-07-25T18:45:23.581Z,23.70
2022-07-25T18:47:50.862Z,23.60
2022-07-25T18:50:20.172Z,23.60
2022-07-25T18:52:46.904Z,23.50
2022-07-25T18:55:13.852Z,23.40
2022-07-25T18:57:40.571Z,23.40
2022-07-25T19:00:09.309Z,23.30
2022-07-25T19:02:36.229Z,23.30
2022-07-25T19:05:03.098Z,23.30
2022-07-25T19:07:31.240Z,23.20
2022-07-25T19:09:58.114Z,23.20
2022-07-25T19:12:26.559Z,23.10
2022-07-25T19:14:54.027Z,23.10
2022-07-25T19:17:21.033Z,23.20
2022-07-25T19:19:47.784Z,23.10
2022-07-25T19:22:14.585Z,23.00
2022-07-25T19:24:41.323Z,23.00
2022-07-25T19:27:09.507Z,22.90
2022-07-25T19:29:37.489Z,22.90
2022-07-25T19:32:04.772Z,22.90
2022-07-25T19:34:31.505Z,22.80
2022-07-25T19:36:58.277Z,22.70
2022-07-25T19:39:24.996Z,22.70
2022-07-25T19:41:52.698Z,22.70
2022-07-25T19:44:19.801Z,22.70
2022-07-25T19:46:48.634Z,22.60
2022-07-25T19:49:15.681Z,22.60
2022-07-25T19:51:42.452Z,22.50
2022-07-25T19:54:09.760Z,22.50
2022-07-25T19:56:37.091Z,22.50
2022-07-25T19:59:04.060Z,22.40
2022-07-25T20:01:34.135Z,22.30
2022-07-25T20:04:02.295Z,22.50
2022-07-25T20:06:29.053Z,22.40
2022-07-25T20:08:56.993Z,22.30
2022-07-25T20:11:23.879Z,22.30
2022-07-25T20:13:50.620Z,22.20
2022-07-25T20:16:17.448Z,22.20
2022-07-25T20:18:44.402Z,22.20
2022-07-25T20:21:11.538Z,22.20
2022-07-25T20:23:38.526Z,22.20
2022-07-25T20:26:05.687Z,22.20
2022-07-25T20:28:32.394Z,22.20
2022-07-25T20:30:59.278Z,22.20
2022-07-25T20:33:27.152Z,22.20
2022-07-25T20:35:57.974Z,22.20
2022-07-25T20:38:28.191Z,22.10
2022-07-25T20:40:55.574Z,22.10
2022-07-25T20:43:22.554Z,22.00
2022-07-25T20:45:49.338Z,21.90
2022-07-25T20:48:16.196Z,21.90
2022-07-25T20:50:44.007Z,21.70
2022-07-25T20:53:10.873Z,21.70
2022-07-25T20:55:38.162Z,21.60
2022-07-25T20:58:05.206Z,21.50
2022-07-25T21:00:32.409Z,21.50
2022-07-25T21:02:59.730Z,21.40
2022-07-25T21:05:27.292Z,21.50
2022-07-25T21:07:54.202Z,21.50
2022-07-25T21:10:21.046Z,21.40
2022-07-25T21:12:47.899Z,21.40
2022-07-25T21:15:15.535Z,21.20
2022-07-25T21:17:42.302Z,21.30
2022-07-25T21:20:13.612Z,21.10
2022-07-25T21:22:41.647Z,21.10
2022-07-25T21:25:09.517Z,21.00
2022-07-25T21:27:36.717Z,21.00
2022-07-25T21:30:05.683Z,20.80
2022-07-25T21:32:32.481Z,20.80
2022-07-25T21:34:59.429Z,20.70
2022-07-25T21:37:26.361Z,20.60
2022-07-25T21:39:53.089Z,20.60
2022-07-25T21:42:19.904Z,20.50
2022-07-25T21:44:46.585Z,20.40
2022-07-25T21:47:13.268Z,20.40
2022-07-25T21:49:58.883Z,20.40
2022-07-25T21:52:30.155Z,20.30
2022-07-25T21:55:03.353Z,20.20
2022-07-25T21:57:30.581Z,20.20
2022-07-25T21:59:57.276Z,20.10
2022-07-25T22:02:24.044Z,19.90
2022-07-25T22:04:50.809Z,19.80
2022-07-25T22:07:17.978Z,19.70
2022-07-25T22:09:44.911Z,19.70
2022-07-25T22:12:11.638Z,19.70
2022-07-25T22:14:38.337Z,19.70
2022-07-25T22:17:05.731Z,19.70
2022-07-25T22:19:32.821Z,19.70
2022-07-25T22:21:59.681Z,19.70
2022-07-25T22:24:26.425Z,19.70
2022-07-25T22:26:53.412Z,19.70
2022-07-25T22:29:20.215Z,19.70
2022-07-25T22:31:46.988Z,19.80
2022-07-25T22:34:13.752Z,19.80
2022-07-25T22:36:40.530Z,19.80
2022-07-25T22:39:07.441Z,19.80
2022-07-25T22:41:34.734Z,19.80
2022-07-25T22:44:01.461Z,19.90
2022-07-25T22:46:29.250Z,19.90
2022-07-25T22:48:56.941Z,19.90
2022-07-25T22:51:24.022Z,20.00
2022-07-25T22:53:50.928Z,20.00
2022-07-25T22:56:17.703Z,20.00
2022-07-25T22:58:45.699Z,20.10
2022-07-25T23:01:15.677Z,20.10
2022-07-25T23:03:42.379Z,20.20
2022-07-25T23:06:09.343Z,20.20
2022-07-25T23:08:36.035Z,20.30
2022-07-25T23:11:03.508Z,20.20
2022-07-25T23:13:30.282Z,20.30
2022-07-25T23:15:57.039Z,20.30
2022-07-25T23:18:23.919Z,20.20
2022-07-25T23:20:50.580Z,20.30
2022-07-25T23:23:17.422Z,20.30
2022-07-25T23:25:44.204Z,20.20
2022-07-25T23:28:10.877Z,20.30
2022-07-25T23:30:40.465Z,20.20
2022-07-25T23:33:07.929Z,20.20
2022-07-25T23:35:35.145Z,20.20
2022-07-25T23:38:02.252Z,20.30
2022-07-25T23:40:29.294Z,20.20
2022-07-25T23:42:56.088Z,20.20
2022-07-25T23:45:24.987Z,20.20
2022-07-25T23:47:54.966Z,20.20
2022-07-25T23:50:22.621Z,20.20
2022-07-25T23:52:49.461Z,20.20
2022-07-25T23:55:16.192Z,20.20
2022-07-25T23:57:43.203Z,20.20
